This is the latest recevied weather packets stored in our database for station/object W0WC. If no packets are shown the sender has not sent any weather packets the latest 10 day(s).
| Time | Temp. | Humidity | Pressure | Rain* | Wind** | Luminosity | Snow |
|---|---|---|---|---|---|---|---|
| 1777925826 | 27.78° C | 45% | 1005.4 hPa | 0 mm | - | 694 W/m² | - |
| 1777925524 | 27.22° C | 45% | 1005.5 hPa | 0 mm | - | 719 W/m² | - |
| 1777925221 | 26.67° C | 45% | 1005.9 hPa | 0 mm | - | 766 W/m² | - |
| 1777924912 | 27.22° C | 44% | 1005.7 hPa | 0 mm | - | 649 W/m² | - |
| 1777924608 | 27.78° C | 43% | 1005.7 hPa | 0 mm | - | 629 W/m² | - |
| 1777924304 | 27.22° C | 46% | 1005.8 hPa | 0 mm | - | 744 W/m² | - |
| 1777924001 | 27.78° C | 43% | 1006 hPa | 0 mm | - | 680 W/m² | - |
| 1777923697 | 27.22° C | 45% | 1006 hPa | 0 mm | - | 741 W/m² | - |
| 1777923394 | 27.22° C | 44% | 1006.1 hPa | 0 mm | - | 744 W/m² | - |
| 1777923092 | 26.67° C | 46% | 1006.1 hPa | 0 mm | - | 749 W/m² | - |
| 1777922789 | 27.22° C | 45% | 1006.2 hPa | 0 mm | - | 754 W/m² | - |
| 1777922488 | 26.67° C | 45% | 1006.5 hPa | 0 mm | - | 758 W/m² | - |
| 1777922186 | 27.22° C | 44% | 1006.5 hPa | 0 mm | - | 765 W/m² | - |
| 1777921881 | 27.22° C | 48% | 1006.5 hPa | 0 mm | - | 770 W/m² | - |
| 1777921578 | 26.67° C | 45% | 1006.5 hPa | 0 mm | - | 774 W/m² | - |
| 1777921275 | 26.67° C | 45% | 1006.3 hPa | 0 mm | - | 777 W/m² | - |
| 1777920971 | 26.11° C | 45% | 1006.4 hPa | 0 mm | - | 775 W/m² | - |
| 1777920668 | 26.67° C | 44% | 1006.5 hPa | 0 mm | - | 789 W/m² | - |
| 1777920363 | 26.11° C | 45% | 1006.3 hPa | 0 mm | - | 789 W/m² | - |
| 1777920059 | 26.11° C | 45% | 1006.3 hPa | 0 mm | - | 789 W/m² | - |
| 1777919756 | 26.11° C | 44% | 1006.4 hPa | 0 mm | - | 789 W/m² | - |
| 1777919454 | 26.11° C | 45% | 1006.2 hPa | 0 mm | - | 789 W/m² | - |
| 1777919150 | 25.56° C | 47% | 1006.1 hPa | 0 mm | - | 789 W/m² | - |
| 1777918848 | 25.56° C | 46% | 1006.2 hPa | 0 mm | - | 796 W/m² | - |
| 1777918545 | 25.56° C | 45% | 1006.4 hPa | 0 mm | - | 795 W/m² | - |
* Rain latest hour (hover to see other rain measurements)
** Current wind speed in m/s (hover to see current wind gust speed)